createdAt,value
2019-05-25T00:00:47.662Z,0
2019-05-25T00:01:49.203Z,0
2019-05-25T00:02:50.612Z,0
2019-05-25T00:03:52.072Z,0
2019-05-25T00:04:53.471Z,0
2019-05-25T00:05:54.984Z,0
2019-05-25T00:06:56.386Z,0
2019-05-25T00:07:57.835Z,0
2019-05-25T00:08:59.232Z,0
2019-05-25T00:10:00.714Z,0
2019-05-25T00:11:02.144Z,0
2019-05-25T00:12:03.617Z,0
2019-05-25T00:13:04.996Z,0
2019-05-25T00:14:06.392Z,0
2019-05-25T00:15:07.917Z,0
2019-05-25T00:16:09.350Z,0
2019-05-25T00:17:10.716Z,0
2019-05-25T00:18:12.238Z,0
2019-05-25T00:19:13.638Z,0
2019-05-25T00:20:15.122Z,0
2019-05-25T00:21:16.517Z,0
2019-05-25T00:22:18.094Z,0
2019-05-25T00:23:19.503Z,0
2019-05-25T00:24:21.090Z,0
2019-05-25T00:25:22.503Z,0
2019-05-25T00:26:23.969Z,0
2019-05-25T00:27:25.460Z,0
2019-05-25T00:28:26.792Z,0
2019-05-25T00:29:28.291Z,0
2019-05-25T00:30:29.691Z,0
2019-05-25T00:31:31.091Z,0
2019-05-25T00:32:33.021Z,0
2019-05-25T00:33:34.419Z,0
2019-05-25T00:34:35.819Z,0
2019-05-25T00:35:37.446Z,0
2019-05-25T00:36:38.843Z,0
2019-05-25T00:37:40.620Z,0
2019-05-25T00:38:42.557Z,0
2019-05-25T00:39:43.961Z,0
2019-05-25T00:40:45.371Z,0
2019-05-25T00:41:47.494Z,0
2019-05-25T00:42:48.888Z,0
2019-05-25T00:43:51.043Z,0
2019-05-25T00:44:52.745Z,0
2019-05-25T00:45:54.816Z,0
2019-05-25T00:46:56.599Z,0
2019-05-25T00:47:58.212Z,0
2019-05-25T00:48:59.610Z,0
2019-05-25T00:50:01.007Z,0
2019-05-25T00:51:02.565Z,0
2019-05-25T00:52:03.964Z,0
2019-05-25T00:53:05.362Z,0
2019-05-25T00:54:07.058Z,0
2019-05-25T00:55:08.462Z,0
2019-05-25T00:56:09.906Z,0
2019-05-25T00:57:11.585Z,0
2019-05-25T00:58:13.762Z,0
2019-05-25T00:59:15.543Z,0
2019-05-25T01:00:17.135Z,0
2019-05-25T01:01:18.532Z,0
2019-05-25T01:02:19.944Z,0
2019-05-25T01:03:21.660Z,0
2019-05-25T01:04:23.076Z,0
2019-05-25T01:05:25.155Z,0
2019-05-25T01:06:26.520Z,0
2019-05-25T01:07:28.420Z,0
2019-05-25T01:08:29.838Z,0
2019-05-25T01:09:31.533Z,0
2019-05-25T01:10:33.690Z,0
2019-05-25T01:11:35.235Z,0
2019-05-25T01:12:36.630Z,0
2019-05-25T01:13:38.318Z,0
2019-05-25T01:14:40.093Z,0
2019-05-25T01:15:41.820Z,0
2019-05-25T01:16:43.608Z,0
2019-05-25T01:17:45.309Z,0
2019-05-25T01:18:46.708Z,0
2019-05-25T01:19:48.395Z,0
2019-05-25T01:20:49.809Z,0
2019-05-25T01:21:51.479Z,0
2019-05-25T01:22:52.876Z,0
2019-05-25T01:23:54.571Z,0
2019-05-25T01:24:56.757Z,0
2019-05-25T01:25:59.231Z,0
2019-05-25T01:27:00.625Z,0
2019-05-25T01:28:02.940Z,0
2019-05-25T01:29:05.089Z,0
2019-05-25T01:30:07.082Z,0
2019-05-25T01:31:08.501Z,0
2019-05-25T01:32:10.187Z,0
2019-05-25T01:33:11.582Z,0
2019-05-25T01:34:13.348Z,0
2019-05-25T01:35:14.922Z,0
2019-05-25T01:36:16.320Z,0
2019-05-25T01:37:17.669Z,0
2019-05-25T01:38:19.239Z,0
2019-05-25T01:39:20.642Z,0
2019-05-25T01:40:22.325Z,0
2019-05-25T01:41:23.720Z,0
2019-05-25T01:42:25.787Z,0
2019-05-25T01:43:27.569Z,0
2019-05-25T01:44:29.733Z,0
2019-05-25T01:45:32.511Z,0
2019-05-25T01:46:33.928Z,0
2019-05-25T01:47:35.324Z,0
2019-05-25T01:48:37.294Z,0
2019-05-25T01:49:38.649Z,0
2019-05-25T01:50:40.211Z,0
2019-05-25T01:51:41.610Z,0
2019-05-25T01:52:43.297Z,0
2019-05-25T01:53:44.693Z,0
2019-05-25T01:54:58.877Z,0
2019-05-25T01:55:48.213Z,0
2019-05-25T01:56:50.282Z,0
2019-05-25T01:57:52.053Z,0
2019-05-25T01:58:53.451Z,0
2019-05-25T01:59:55.402Z,0
2019-05-25T02:00:57.176Z,0
2019-05-25T02:01:58.578Z,0
2019-05-25T02:03:00.183Z,0
2019-05-25T02:04:01.601Z,0
2019-05-25T02:05:03.000Z,0
2019-05-25T02:06:05.061Z,0
2019-05-25T02:07:06.838Z,0
2019-05-25T02:08:08.235Z,0
2019-05-25T02:09:10.204Z,0
2019-05-25T02:10:12.010Z,0
2019-05-25T02:11:13.525Z,0
2019-05-25T02:12:14.924Z,0
2019-05-25T02:13:16.607Z,0
2019-05-25T02:14:18.030Z,0
2019-05-25T02:15:20.109Z,0
2019-05-25T02:16:21.505Z,0
2019-05-25T02:17:23.196Z,0
2019-05-25T02:18:24.586Z,0
2019-05-25T02:19:26.073Z,0
2019-05-25T02:20:27.471Z,0
2019-05-25T02:21:29.179Z,0
2019-05-25T02:22:30.559Z,0
2019-05-25T02:23:31.957Z,0
2019-05-25T02:24:33.480Z,0
2019-05-25T02:25:35.648Z,0
2019-05-25T02:26:37.045Z,0
2019-05-25T02:27:38.633Z,0
2019-05-25T02:28:40.020Z,0
2019-05-25T02:29:41.795Z,0
2019-05-25T02:30:43.357Z,0
2019-05-25T02:31:45.127Z,0
2019-05-25T02:32:46.644Z,0
2019-05-25T02:33:48.811Z,0
2019-05-25T02:34:50.724Z,0
2019-05-25T02:35:52.534Z,0
2019-05-25T02:36:54.043Z,0
2019-05-25T02:37:55.818Z,0
2019-05-25T02:38:57.216Z,0
2019-05-25T02:39:58.791Z,0
2019-05-25T02:41:00.559Z,0
2019-05-25T02:42:01.965Z,0
2019-05-25T02:43:03.504Z,0
2019-05-25T02:44:04.904Z,0
2019-05-25T02:45:06.688Z,0
2019-05-25T02:46:08.650Z,0
2019-05-25T02:47:10.033Z,0
2019-05-25T02:48:11.730Z,0
2019-05-25T02:49:13.129Z,0
2019-05-25T02:50:14.816Z,0
2019-05-25T02:51:16.593Z,4
2019-05-25T02:52:18.129Z,4
2019-05-25T02:53:19.516Z,4
2019-05-25T02:54:21.277Z,4
2019-05-25T02:55:33.680Z,0
2019-05-25T02:56:24.487Z,4
2019-05-25T02:57:26.717Z,4
2019-05-25T02:58:28.389Z,4
2019-05-25T02:59:29.784Z,4
2019-05-25T03:00:31.182Z,4
2019-05-25T03:01:33.094Z,4
2019-05-25T03:02:34.494Z,8
2019-05-25T03:03:35.909Z,4
2019-05-25T03:04:37.442Z,8
2019-05-25T03:05:38.879Z,8
2019-05-25T03:06:40.528Z,12
2019-05-25T03:07:42.213Z,12
2019-05-25T03:08:44.195Z,16
2019-05-25T03:09:45.619Z,16
2019-05-25T03:10:47.337Z,16
2019-05-25T03:11:49.106Z,20
2019-05-25T03:12:50.821Z,20
2019-05-25T03:13:52.210Z,24
2019-05-25T03:14:54.275Z,28
2019-05-25T03:15:55.687Z,28
2019-05-25T03:16:57.392Z,32
2019-05-25T03:17:58.790Z,36
2019-05-25T03:19:00.481Z,40
2019-05-25T03:20:02.262Z,40
2019-05-25T03:21:04.743Z,40
2019-05-25T03:22:06.172Z,48
2019-05-25T03:23:08.256Z,48
2019-05-25T03:24:09.654Z,56
2019-05-25T03:25:11.435Z,56
2019-05-25T03:26:15.066Z,60
2019-05-25T03:27:16.470Z,60
2019-05-25T03:28:17.863Z,64
2019-05-25T03:29:19.414Z,68
2019-05-25T03:30:20.804Z,76
2019-05-25T03:31:22.473Z,80
2019-05-25T03:32:23.872Z,84
2019-05-25T03:33:25.950Z,92
2019-05-25T03:34:27.735Z,96
2019-05-25T03:35:29.137Z,96
2019-05-25T03:36:30.706Z,100
2019-05-25T03:37:32.767Z,108
2019-05-25T03:38:34.501Z,108
2019-05-25T03:39:36.051Z,108
2019-05-25T03:40:37.448Z,104
2019-05-25T03:41:38.851Z,108
2019-05-25T03:42:40.372Z,112
2019-05-25T03:43:41.772Z,120
2019-05-25T03:44:43.169Z,124
2019-05-25T03:45:45.075Z,124
2019-05-25T03:46:46.482Z,124
2019-05-25T03:47:48.643Z,120
2019-05-25T03:48:50.649Z,120
2019-05-25T03:49:52.025Z,124
2019-05-25T03:50:53.425Z,128
2019-05-25T03:51:55.351Z,128
2019-05-25T03:52:56.759Z,132
2019-05-25T03:53:58.469Z,136
2019-05-25T03:54:59.867Z,140
2019-05-25T03:56:05.870Z,148
2019-05-25T03:57:03.176Z,148
2019-05-25T03:58:04.581Z,152
2019-05-25T03:59:05.977Z,160
2019-05-25T04:00:07.525Z,168
2019-05-25T04:01:09.670Z,180
2019-05-25T04:02:11.229Z,192
2019-05-25T04:03:12.631Z,208
2019-05-25T04:04:14.340Z,224
2019-05-25T04:05:15.759Z,228
2019-05-25T04:06:17.773Z,232
2019-05-25T04:07:19.183Z,220
2019-05-25T04:08:20.888Z,200
2019-05-25T04:09:23.044Z,188
2019-05-25T04:10:24.966Z,192
2019-05-25T04:11:26.367Z,212
2019-05-25T04:12:28.270Z,240
2019-05-25T04:13:30.043Z,260
2019-05-25T04:14:31.581Z,252
2019-05-25T04:15:32.986Z,260
2019-05-25T04:16:35.059Z,280
2019-05-25T04:17:36.473Z,320
2019-05-25T04:18:38.159Z,376
2019-05-25T04:19:39.560Z,428
2019-05-25T04:20:41.343Z,440
2019-05-25T04:21:42.890Z,460
2019-05-25T04:22:44.341Z,456
2019-05-25T04:23:45.747Z,440
2019-05-25T04:24:47.801Z,428
2019-05-25T04:25:50.287Z,464
2019-05-25T04:26:51.692Z,504
2019-05-25T04:27:53.380Z,468
2019-05-25T04:28:54.806Z,440
2019-05-25T04:29:56.582Z,464
2019-05-25T04:30:58.116Z,492
2019-05-25T04:31:59.512Z,520
2019-05-25T04:33:01.195Z,540
2019-05-25T04:34:02.602Z,548
2019-05-25T04:35:04.316Z,536
2019-05-25T04:36:05.724Z,540
2019-05-25T04:37:07.363Z,548
2019-05-25T04:38:08.772Z,524
2019-05-25T04:39:10.844Z,488
2019-05-25T04:40:12.237Z,492
2019-05-25T04:41:13.639Z,492
2019-05-25T04:42:15.187Z,480
2019-05-25T04:43:16.581Z,476
2019-05-25T04:44:17.978Z,468
2019-05-25T04:45:19.500Z,452
2019-05-25T04:46:21.622Z,468
2019-05-25T04:47:26.904Z,508
2019-05-25T04:48:23.826Z,504
2019-05-25T04:49:25.228Z,460
2019-05-25T04:50:26.629Z,500
2019-05-25T04:51:28.165Z,516
2019-05-25T04:52:29.568Z,524
2019-05-25T04:53:30.971Z,512
2019-05-25T04:54:32.674Z,500
2019-05-25T04:55:34.457Z,500
2019-05-25T04:56:39.463Z,500
2019-05-25T04:57:37.400Z,504
2019-05-25T04:58:38.807Z,516
2019-05-25T04:59:40.207Z,524
2019-05-25T05:00:41.724Z,524
2019-05-25T05:01:43.132Z,520
2019-05-25T05:02:44.846Z,516
2019-05-25T05:03:46.214Z,532
2019-05-25T05:04:47.895Z,548
2019-05-25T05:05:50.080Z,532
2019-05-25T05:06:51.492Z,488
2019-05-25T05:07:53.038Z,468
2019-05-25T05:08:54.436Z,468
2019-05-25T05:10:02.494Z,488
2019-05-25T05:10:57.358Z,508
2019-05-25T05:11:58.764Z,516
2019-05-25T05:13:00.550Z,524
2019-05-25T05:14:02.129Z,544
2019-05-25T05:15:03.504Z,576
2019-05-25T05:16:04.907Z,608
2019-05-25T05:17:06.617Z,636
2019-05-25T05:18:08.015Z,644
2019-05-25T05:19:09.713Z,640
2019-05-25T05:20:11.212Z,632
2019-05-25T05:21:13.006Z,648
2019-05-25T05:22:14.642Z,664
2019-05-25T05:23:16.426Z,656
2019-05-25T05:24:17.835Z,624
2019-05-25T05:25:19.385Z,596
2019-05-25T05:26:20.785Z,580
2019-05-25T05:27:22.195Z,572
2019-05-25T05:28:23.910Z,576
2019-05-25T05:29:25.314Z,584
2019-05-25T05:30:26.715Z,608
2019-05-25T05:31:28.418Z,632
2019-05-25T05:32:29.815Z,652
2019-05-25T05:33:31.503Z,672
2019-05-25T05:34:32.912Z,692
2019-05-25T05:35:38.206Z,704
2019-05-25T05:36:36.417Z,716
2019-05-25T05:37:37.764Z,732
2019-05-25T05:38:39.362Z,736
2019-05-25T05:39:41.147Z,732
2019-05-25T05:40:42.576Z,724
2019-05-25T05:41:44.256Z,724
2019-05-25T05:42:45.659Z,732
2019-05-25T05:43:47.450Z,740
2019-05-25T05:44:48.987Z,752
2019-05-25T05:45:50.383Z,776
2019-05-25T05:46:52.555Z,788
2019-05-25T05:47:54.528Z,780
2019-05-25T05:48:55.940Z,780
2019-05-25T05:49:57.292Z,764
2019-05-25T05:50:58.859Z,740
2019-05-25T05:52:00.262Z,740
2019-05-25T05:53:01.944Z,752
2019-05-25T05:54:03.343Z,764
2019-05-25T05:55:05.046Z,784
2019-05-25T05:56:06.810Z,796
2019-05-25T05:57:12.118Z,816
2019-05-25T05:58:10.148Z,844
2019-05-25T05:59:11.819Z,884
2019-05-25T06:00:13.221Z,936
2019-05-25T06:01:14.617Z,960
2019-05-25T06:02:16.141Z,980
2019-05-25T06:03:17.924Z,984
2019-05-25T06:04:19.325Z,984
2019-05-25T06:05:20.897Z,996
2019-05-25T06:06:22.678Z,1036
2019-05-25T06:07:27.230Z,1064
2019-05-25T06:08:25.973Z,1112
2019-05-25T06:09:27.385Z,1212
2019-05-25T06:10:28.890Z,1300
2019-05-25T06:11:30.295Z,1352
2019-05-25T06:12:31.698Z,1360
2019-05-25T06:13:33.211Z,1364
2019-05-25T06:14:34.623Z,1360
2019-05-25T06:15:36.026Z,1336
2019-05-25T06:16:37.558Z,1348
2019-05-25T06:17:38.955Z,1400
2019-05-25T06:18:40.367Z,1384
2019-05-25T06:19:42.061Z,1376
2019-05-25T06:20:43.464Z,1348
2019-05-25T06:21:44.890Z,1396
2019-05-25T06:22:46.966Z,1456
2019-05-25T06:23:48.365Z,1484
2019-05-25T06:24:49.878Z,1492
2019-05-25T06:25:51.281Z,1476
2019-05-25T06:26:52.963Z,1420
2019-05-25T06:27:54.378Z,1400
2019-05-25T06:28:56.050Z,1424
2019-05-25T06:29:57.451Z,1472
2019-05-25T06:30:59.134Z,1528
2019-05-25T06:32:00.536Z,1704
2019-05-25T06:33:02.231Z,2108
2019-05-25T06:34:03.623Z,2252
2019-05-25T06:35:05.306Z,2340
2019-05-25T06:36:06.715Z,2236
2019-05-25T06:37:08.629Z,2268
2019-05-25T06:38:10.040Z,2484
2019-05-25T06:39:11.690Z,2396
2019-05-25T06:40:13.098Z,2292
2019-05-25T06:41:14.771Z,2220
2019-05-25T06:42:16.170Z,2256
2019-05-25T06:43:17.860Z,2508
2019-05-25T06:44:19.256Z,2532
2019-05-25T06:45:21.318Z,2476
2019-05-25T06:46:22.722Z,2572
2019-05-25T06:47:24.607Z,2568
2019-05-25T06:48:26.014Z,2408
2019-05-25T06:49:27.526Z,2228
2019-05-25T06:50:28.935Z,2348
2019-05-25T06:51:30.604Z,2524
2019-05-25T06:52:32.009Z,2504
2019-05-25T06:53:33.731Z,2620
2019-05-25T06:54:35.158Z,2744
2019-05-25T06:55:36.778Z,2668
2019-05-25T06:56:38.181Z,2644
2019-05-25T06:57:43.577Z,2700
2019-05-25T06:58:41.315Z,2688
2019-05-25T06:59:42.951Z,2688
2019-05-25T07:00:44.362Z,2828
2019-05-25T07:01:45.765Z,2920
2019-05-25T07:02:47.484Z,2920
2019-05-25T07:03:49.256Z,2908
2019-05-25T07:04:50.683Z,2820
2019-05-25T07:05:52.208Z,2796
2019-05-25T07:06:53.651Z,2840
2019-05-25T07:07:55.072Z,2868
2019-05-25T07:08:56.734Z,2924
2019-05-25T07:09:58.138Z,2896
2019-05-25T07:10:59.549Z,2988
2019-05-25T07:12:01.058Z,3008
2019-05-25T07:13:02.460Z,2928
2019-05-25T07:14:04.171Z,2836
2019-05-25T07:15:05.575Z,2692
2019-05-25T07:16:07.227Z,2632
2019-05-25T07:17:08.634Z,2724
2019-05-25T07:18:10.101Z,2908
2019-05-25T07:19:11.753Z,3200
2019-05-25T07:20:13.155Z,3556
2019-05-25T07:21:14.559Z,3792
2019-05-25T07:22:16.086Z,4048
2019-05-25T07:23:17.492Z,4160
2019-05-25T07:24:18.898Z,4300
2019-05-25T07:25:20.692Z,4440
2019-05-25T07:26:21.978Z,4708
2019-05-25T07:27:23.382Z,5252
2019-05-25T07:28:24.924Z,5776
2019-05-25T07:29:26.706Z,6500
2019-05-25T07:30:28.418Z,7800
2019-05-25T07:31:29.820Z,9320
2019-05-25T07:32:31.510Z,9828
2019-05-25T07:33:32.906Z,10836
2019-05-25T07:34:34.591Z,15304
2019-05-25T07:35:35.998Z,19328
2019-05-25T07:36:37.681Z,25568
2019-05-25T07:37:39.084Z,25856
2019-05-25T07:38:40.494Z,40800
2019-05-25T07:39:42.206Z,20192
2019-05-25T07:40:43.607Z,21760
2019-05-25T07:41:45.012Z,22752
2019-05-25T07:42:46.523Z,50336
2019-05-25T07:43:47.934Z,76992
2019-05-25T07:44:49.342Z,92224
2019-05-25T07:45:51.058Z,83520
2019-05-25T07:46:52.464Z,57024
2019-05-25T07:47:53.875Z,84672
2019-05-25T07:48:55.578Z,59520
2019-05-25T07:49:56.985Z,89600
2019-05-25T07:50:58.681Z,85984
2019-05-25T07:52:02.650Z,86816
2019-05-25T07:53:01.753Z,88192
2019-05-25T07:54:03.166Z,87968
2019-05-25T07:55:04.835Z,18112
2019-05-25T07:56:06.240Z,9564
2019-05-25T07:57:07.930Z,12336
2019-05-25T07:58:17.305Z,101536
2019-05-25T07:59:11.096Z,5580
2019-05-25T08:00:12.647Z,5728
2019-05-25T08:01:14.054Z,8712
2019-05-25T08:02:15.462Z,11488
2019-05-25T08:03:16.976Z,11332
2019-05-25T08:04:18.375Z,11096
2019-05-25T08:05:19.788Z,14132
2019-05-25T08:06:21.501Z,12680
2019-05-25T08:07:23.289Z,12272
2019-05-25T08:08:24.692Z,12932
2019-05-25T08:09:26.235Z,12360
2019-05-25T08:10:27.641Z,11232
2019-05-25T08:11:29.049Z,9196
2019-05-25T08:12:30.755Z,7188
2019-05-25T08:13:32.198Z,8256
2019-05-25T08:14:33.838Z,6508
2019-05-25T08:15:35.238Z,6228
2019-05-25T08:16:36.927Z,6332
2019-05-25T08:17:38.336Z,6228
2019-05-25T08:18:39.739Z,6668
2019-05-25T08:19:41.251Z,6628
2019-05-25T08:20:42.652Z,6704
2019-05-25T08:21:44.062Z,7296
2019-05-25T08:22:45.571Z,8268
2019-05-25T08:23:46.978Z,8344
2019-05-25T08:24:48.653Z,9820
2019-05-25T08:25:50.060Z,8204
2019-05-25T08:26:51.750Z,8096
2019-05-25T08:27:53.158Z,8296
2019-05-25T08:28:54.565Z,9236
2019-05-25T08:29:56.287Z,11040
2019-05-25T08:31:01.073Z,14436
2019-05-25T08:31:59.070Z,18400
2019-05-25T08:33:00.591Z,8940
2019-05-25T08:34:02.104Z,13764
2019-05-25T08:35:03.513Z,8116
2019-05-25T08:36:05.113Z,7472
2019-05-25T08:37:06.528Z,7716
2019-05-25T08:38:08.298Z,8176
2019-05-25T08:39:09.867Z,8684
2019-05-25T08:40:11.653Z,10892
2019-05-25T08:41:13.130Z,45504
2019-05-25T08:42:14.785Z,23328
2019-05-25T08:43:16.192Z,20352
2019-05-25T08:44:17.601Z,25888
2019-05-25T08:45:19.100Z,10496
2019-05-25T08:46:20.508Z,9596
2019-05-25T08:47:22.190Z,10016
2019-05-25T08:48:23.593Z,9128
2019-05-25T08:49:25.276Z,15096
2019-05-25T08:50:37.852Z,13748
2019-05-25T08:51:28.563Z,27456
2019-05-25T08:52:29.977Z,8284
2019-05-25T08:53:40.471Z,8652
2019-05-25T08:54:33.036Z,12628
2019-05-25T08:55:34.456Z,11396
2019-05-25T08:56:35.975Z,17792
2019-05-25T08:57:37.403Z,13784
2019-05-25T08:58:48.103Z,10984
2019-05-25T08:59:40.433Z,12796
2019-05-25T09:00:41.840Z,14976
2019-05-25T09:01:43.376Z,13776
2019-05-25T09:02:44.784Z,11300
2019-05-25T09:03:46.206Z,11788
2019-05-25T09:04:47.614Z,10468
2019-05-25T09:05:49.027Z,21152
2019-05-25T09:06:50.437Z,49632
2019-05-25T09:07:52.024Z,53408
2019-05-25T09:08:53.426Z,46720
2019-05-25T09:09:54.836Z,65184
2019-05-25T09:10:56.340Z,56992
2019-05-25T09:11:57.750Z,38592
2019-05-25T09:12:59.436Z,14336
2019-05-25T09:14:00.895Z,8708
2019-05-25T09:15:05.691Z,9700
2019-05-25T09:16:03.879Z,10632
2019-05-25T09:17:05.393Z,10120
2019-05-25T09:18:06.890Z,11028
2019-05-25T09:19:08.297Z,10052
2019-05-25T09:20:09.707Z,22720
2019-05-25T09:21:11.360Z,21440
2019-05-25T09:22:12.765Z,9228
2019-05-25T09:23:14.446Z,40192
2019-05-25T09:24:15.855Z,8512
2019-05-25T09:25:17.308Z,10616
2019-05-25T09:26:18.767Z,20512
2019-05-25T09:27:20.175Z,65280
2019-05-25T09:28:21.593Z,100416
2019-05-25T09:29:23.292Z,9136
2019-05-25T09:30:24.699Z,8812
2019-05-25T09:31:26.108Z,21024
2019-05-25T09:32:27.617Z,10576
2019-05-25T09:33:29.024Z,7532
2019-05-25T09:34:30.427Z,7832
2019-05-25T09:35:31.954Z,28160
2019-05-25T09:36:33.360Z,16068
2019-05-25T09:37:34.774Z,26784
2019-05-25T09:38:36.382Z,9964
2019-05-25T09:39:37.794Z,14368
2019-05-25T09:40:39.244Z,9076
2019-05-25T09:41:40.781Z,9260
2019-05-25T09:42:42.208Z,9456
2019-05-25T09:43:43.576Z,9196
2019-05-25T09:44:45.103Z,8432
2019-05-25T09:45:46.544Z,8228
2019-05-25T09:46:48.189Z,7028
2019-05-25T09:47:49.596Z,6880
2019-05-25T09:48:50.999Z,7312
2019-05-25T09:49:52.512Z,7768
2019-05-25T09:50:53.919Z,7668
2019-05-25T09:51:55.318Z,7164
2019-05-25T09:52:56.832Z,6716
2019-05-25T09:53:58.237Z,6308
2019-05-25T09:54:59.644Z,6148
2019-05-25T09:56:01.151Z,5832
2019-05-25T09:57:02.658Z,5656
2019-05-25T09:58:04.079Z,4448
2019-05-25T09:59:19.171Z,4616
2019-05-25T10:00:07.052Z,4492
2019-05-25T10:01:08.459Z,4680
2019-05-25T10:02:10.047Z,5384
2019-05-25T10:03:11.456Z,6188
2019-05-25T10:04:12.856Z,6540
2019-05-25T10:05:14.548Z,7020
2019-05-25T10:06:15.952Z,6636
2019-05-25T10:07:17.403Z,6716
2019-05-25T10:08:19.054Z,7152
2019-05-25T10:09:20.489Z,6652
2019-05-25T10:10:21.869Z,6780
2019-05-25T10:11:23.444Z,7308
2019-05-25T10:12:24.965Z,8296
2019-05-25T10:13:26.713Z,7948
2019-05-25T10:14:28.271Z,8188
2019-05-25T10:15:29.943Z,6776
2019-05-25T10:16:31.403Z,6932
2019-05-25T10:17:32.816Z,7052
2019-05-25T10:18:34.615Z,7612
2019-05-25T10:19:36.155Z,7760
2019-05-25T10:20:37.551Z,6932
2019-05-25T10:21:39.338Z,7520
2019-05-25T10:22:40.857Z,7408
2019-05-25T10:23:42.264Z,6780
2019-05-25T10:24:43.677Z,6412
2019-05-25T10:25:45.184Z,6900
2019-05-25T10:26:46.586Z,7076
2019-05-25T10:27:48.010Z,8096
2019-05-25T10:28:49.765Z,8176
2019-05-25T10:29:51.235Z,8372
2019-05-25T10:30:52.686Z,7520
2019-05-25T10:31:54.096Z,7596
2019-05-25T10:32:55.677Z,8872
2019-05-25T10:33:57.211Z,8252
2019-05-25T10:34:58.651Z,6444
2019-05-25T10:36:00.206Z,6248
2019-05-25T10:37:01.609Z,6504
2019-05-25T10:38:03.079Z,6320
2019-05-25T10:39:05.148Z,5528
2019-05-25T10:40:06.583Z,5672
2019-05-25T10:41:08.015Z,5528
2019-05-25T10:42:09.709Z,5472
2019-05-25T10:43:11.125Z,5784
2019-05-25T10:44:12.528Z,8476
2019-05-25T10:45:14.188Z,4692
2019-05-25T10:46:15.594Z,4148
2019-05-25T10:47:17.272Z,4964
2019-05-25T10:48:18.703Z,5940
2019-05-25T10:49:20.356Z,7108
2019-05-25T10:50:21.774Z,6644
2019-05-25T10:51:23.631Z,7072
2019-05-25T10:52:25.152Z,7752
2019-05-25T10:53:26.736Z,7772
2019-05-25T10:54:28.142Z,8248
2019-05-25T10:55:29.575Z,9836
2019-05-25T10:56:30.990Z,8584
2019-05-25T10:57:33.347Z,8620
2019-05-25T10:58:35.499Z,8380
2019-05-25T10:59:50.170Z,8000
2019-05-25T11:00:38.408Z,7976
2019-05-25T11:01:40.211Z,8448
2019-05-25T11:02:41.746Z,8736
2019-05-25T11:03:43.153Z,8284
2019-05-25T11:04:44.595Z,7784
2019-05-25T11:05:46.274Z,7788
2019-05-25T11:06:47.679Z,7732
2019-05-25T11:07:49.083Z,8380
2019-05-25T11:08:50.628Z,7756
2019-05-25T11:09:52.044Z,7208
2019-05-25T11:10:53.449Z,6956
2019-05-25T11:11:55.120Z,6984
2019-05-25T11:12:56.527Z,6820
2019-05-25T11:13:58.207Z,6620
2019-05-25T11:14:59.673Z,6664
2019-05-25T11:16:01.076Z,7040
2019-05-25T11:17:02.802Z,6852
2019-05-25T11:18:04.224Z,7028
2019-05-25T11:19:05.639Z,6752
2019-05-25T11:20:07.267Z,6160
2019-05-25T11:21:08.676Z,5768
2019-05-25T11:22:10.346Z,5424
2019-05-25T11:23:11.751Z,5388
2019-05-25T11:24:13.635Z,5332
2019-05-25T11:25:15.046Z,5312
2019-05-25T11:26:17.993Z,5400
2019-05-25T11:27:19.409Z,5572
2019-05-25T11:28:21.043Z,5640
2019-05-25T11:29:22.449Z,5596
2019-05-25T11:30:23.869Z,5592
2019-05-25T11:31:25.571Z,5484
2019-05-25T11:32:26.972Z,5348
2019-05-25T11:33:28.376Z,5512
2019-05-25T11:34:29.883Z,5552
2019-05-25T11:35:31.296Z,5728
2019-05-25T11:36:32.778Z,5792
2019-05-25T11:37:34.409Z,5924
2019-05-25T11:38:35.825Z,6308
2019-05-25T11:39:37.496Z,6868
2019-05-25T11:40:39.011Z,7216
2019-05-25T11:41:40.437Z,7432
2019-05-25T11:42:42.028Z,7388
2019-05-25T11:43:43.629Z,7168
2019-05-25T11:44:44.928Z,6748
2019-05-25T11:45:46.553Z,6304
2019-05-25T11:46:47.965Z,5756
2019-05-25T11:47:49.379Z,5656
2019-05-25T11:48:51.074Z,5528
2019-05-25T11:49:52.480Z,5444
2019-05-25T11:50:53.888Z,5332
2019-05-25T11:51:55.464Z,5176
2019-05-25T11:52:56.868Z,5568
2019-05-25T11:53:58.280Z,5336
2019-05-25T11:54:59.925Z,5512
2019-05-25T11:56:01.328Z,5612
2019-05-25T11:57:02.744Z,5960
2019-05-25T11:58:04.245Z,6160
2019-05-25T11:59:05.654Z,6096
2019-05-25T12:00:07.493Z,5836
2019-05-25T12:01:08.906Z,5732
2019-05-25T12:02:10.425Z,5916
2019-05-25T12:03:11.823Z,5924
2019-05-25T12:04:13.500Z,5236
2019-05-25T12:05:14.906Z,4676
2019-05-25T12:06:16.584Z,4568
2019-05-25T12:07:18.020Z,4556
2019-05-25T12:08:19.430Z,4836
2019-05-25T12:09:21.108Z,5132
2019-05-25T12:10:22.519Z,5572
2019-05-25T12:11:23.934Z,6408
2019-05-25T12:12:25.432Z,6320
2019-05-25T12:13:26.839Z,5632
2019-05-25T12:14:28.242Z,5996
2019-05-25T12:15:29.757Z,5288
2019-05-25T12:16:31.192Z,5804
2019-05-25T12:17:32.598Z,5828
2019-05-25T12:18:34.282Z,5788
2019-05-25T12:19:35.693Z,6296
2019-05-25T12:20:37.471Z,6236
2019-05-25T12:21:39.012Z,5460
2019-05-25T12:22:40.417Z,4928
2019-05-25T12:23:41.820Z,4312
2019-05-25T12:24:43.336Z,3676
2019-05-25T12:25:44.743Z,3536
2019-05-25T12:26:46.146Z,3012
2019-05-25T12:27:49.365Z,2676
2019-05-25T12:28:49.025Z,2408
2019-05-25T12:29:53.398Z,2164
2019-05-25T12:30:54.808Z,2156
2019-05-25T12:32:04.009Z,2904
2019-05-25T12:32:57.860Z,2896
2019-05-25T12:33:59.370Z,3404
2019-05-25T12:35:00.777Z,3604
2019-05-25T12:36:02.456Z,3916
2019-05-25T12:37:03.865Z,4124
2019-05-25T12:38:05.580Z,4272
2019-05-25T12:39:06.988Z,4400
2019-05-25T12:40:08.656Z,4296
2019-05-25T12:41:10.031Z,4424
2019-05-25T12:42:11.711Z,4680
2019-05-25T12:43:13.116Z,4840
2019-05-25T12:44:14.797Z,5308
2019-05-25T12:45:16.583Z,5352
2019-05-25T12:46:17.988Z,4132
2019-05-25T12:47:19.527Z,3684
2019-05-25T12:48:20.940Z,3520
2019-05-25T12:49:22.340Z,3072
2019-05-25T12:50:23.850Z,2836
2019-05-25T12:51:25.265Z,2676
2019-05-25T12:52:26.664Z,2604
2019-05-25T12:53:28.172Z,2716
2019-05-25T12:54:29.578Z,1860
2019-05-25T12:55:30.983Z,1900
2019-05-25T12:56:32.513Z,1820
2019-05-25T12:57:33.913Z,1828
2019-05-25T12:58:35.579Z,2232
2019-05-25T12:59:36.988Z,3324
2019-05-25T13:00:38.668Z,4416
2019-05-25T13:01:40.101Z,5240
2019-05-25T13:02:41.505Z,5348
2019-05-25T13:03:43.191Z,5308
2019-05-25T13:04:44.886Z,4924
2019-05-25T13:05:46.295Z,4328
2019-05-25T13:06:47.962Z,3972
2019-05-25T13:07:49.377Z,3532
2019-05-25T13:08:51.008Z,3220
2019-05-25T13:09:52.410Z,3052
2019-05-25T13:10:54.096Z,2692
2019-05-25T13:11:55.873Z,2376
2019-05-25T13:12:57.740Z,2068
2019-05-25T13:14:06.329Z,1816
2019-05-25T13:15:00.196Z,1980
2019-05-25T13:16:01.608Z,2132
2019-05-25T13:17:03.146Z,2172
2019-05-25T13:18:04.554Z,2368
2019-05-25T13:19:05.961Z,2696
2019-05-25T13:20:07.471Z,2996
2019-05-25T13:21:08.875Z,3212
2019-05-25T13:22:10.289Z,3380
2019-05-25T13:23:11.788Z,3348
2019-05-25T13:24:13.187Z,3188
2019-05-25T13:25:14.623Z,2984
2019-05-25T13:26:16.112Z,2728
2019-05-25T13:27:17.529Z,2512
2019-05-25T13:28:18.935Z,2356
2019-05-25T13:29:20.482Z,2312
2019-05-25T13:30:21.904Z,2444
2019-05-25T13:31:23.315Z,2508
2019-05-25T13:32:24.960Z,2364
2019-05-25T13:33:26.364Z,2232
2019-05-25T13:34:27.834Z,2144
2019-05-25T13:35:29.484Z,1976
2019-05-25T13:36:30.895Z,1776
2019-05-25T13:37:32.306Z,1652
2019-05-25T13:38:33.807Z,1604
2019-05-25T13:39:35.212Z,1536
2019-05-25T13:40:36.898Z,1520
2019-05-25T13:41:38.312Z,1480
2019-05-25T13:42:39.716Z,1460
2019-05-25T13:43:41.211Z,1440
2019-05-25T13:44:42.620Z,1440
2019-05-25T13:45:45.986Z,1420
2019-05-25T13:46:45.531Z,1436
2019-05-25T13:47:46.939Z,1468
2019-05-25T13:48:48.342Z,1516
2019-05-25T13:49:49.853Z,1520
2019-05-25T13:50:51.289Z,1508
2019-05-25T13:51:53.067Z,1524
2019-05-25T13:52:54.594Z,1504
2019-05-25T13:53:56.748Z,1460
2019-05-25T13:54:58.289Z,1476
2019-05-25T13:55:59.692Z,1460
2019-05-25T13:57:01.380Z,1408
2019-05-25T13:58:02.809Z,1412
2019-05-25T13:59:04.458Z,1416
2019-05-25T14:00:05.861Z,1436
2019-05-25T14:01:07.546Z,1504
2019-05-25T14:02:08.970Z,1624